Time;durP1;ratioP1;P1;durP2;ratioP2;P2;SDS_P1;SDS_P2;PMS_P1;PMS_P2;Temp;Humidity;BMP_temperature;BMP_pressure;BME280_temperature;BME280_humidity;BME280_pressure;Samples;Min_cycle;Max_cycle;Signal;HPM_P1;HPM_P2
2022/11/14 00:02:42;;;;;;;62.10;12.37;;;;;;;3.26;100.00;100565.20;1672472;85;21495;-76
2022/11/14 00:05:31;;;;;;;77.78;12.63;;;;;;;3.26;100.00;100559.78;1681705;85;21534;-78
2022/11/14 00:08:21;;;;;;;54.63;13.20;;;;;;;3.29;100.00;100564.72;1673106;85;21269;-76
2022/11/14 00:11:12;;;;;;;63.30;13.75;;;;;;;3.33;100.00;100554.20;1685293;84;20993;-78
2022/11/14 00:14:01;;;;;;;33.30;13.90;;;;;;;3.37;100.00;100562.15;1705138;84;21043;-77
2022/11/14 00:16:56;;;;;;;59.10;12.05;;;;;;;3.52;100.00;100573.79;1700279;84;21016;-76
2022/11/14 00:19:42;;;;;;;113.42;16.42;;;;;;;3.52;100.00;100573.79;1696186;84;20936;-76
2022/11/14 00:22:29;;;;;;;86.45;15.05;;;;;;;3.60;100.00;100568.78;1704780;84;21121;-76
2022/11/14 00:25:16;;;;;;;70.32;16.67;;;;;;;3.65;100.00;100569.41;1701576;84;21736;-77
2022/11/14 00:28:06;;;;;;;56.28;12.15;;;;;;;3.65;100.00;100569.41;1664256;84;21447;-76
2022/11/14 00:30:55;;;;;;;53.73;12.73;;;;;;;3.67;100.00;100569.98;1697979;84;21082;-75
2022/11/14 00:33:45;;;;;;;60.20;11.12;;;;;;;3.69;100.00;100571.92;1678685;84;20906;-75
2022/11/14 00:36:33;;;;;;;78.70;11.25;;;;;;;3.69;100.00;100569.20;1702254;84;21184;-76
2022/11/14 00:39:21;;;;;;;40.98;9.65;;;;;;;3.72;100.00;100574.69;1696073;84;21127;-76
2022/11/14 00:42:11;;;;;;;47.03;8.03;;;;;;;3.75;100.00;100572.84;1703668;84;21023;-76
2022/11/14 00:45:02;;;;;;;24.87;7.33;;;;;;;3.81;100.00;100573.21;1648236;85;21506;-76
2022/11/14 00:47:51;;;;;;;50.55;7.67;;;;;;;3.79;100.00;100573.45;1665307;85;20944;-76
2022/11/14 00:50:40;;;;;;;51.10;7.12;;;;;;;3.80;100.00;100577.82;1674427;84;21505;-77
2022/11/14 00:53:28;;;;;;;49.42;7.67;;;;;;;3.77;100.00;100568.80;1643457;86;20971;-76
2022/11/14 00:56:17;;;;;;;52.13;8.20;;;;;;;3.77;100.00;100568.80;1672515;84;20916;-75
2022/11/14 00:59:10;;;;;;;52.73;7.97;;;;;;;3.78;100.00;100575.06;1666684;85;20992;-76
2022/11/14 01:02:03;;;;;;;55.65;6.95;;;;;;;3.78;100.00;100581.31;1705891;83;21573;-77
2022/11/14 01:04:55;;;;;;;27.32;7.20;;;;;;;3.81;100.00;100578.64;1668219;85;21298;-76
2022/11/14 01:07:46;;;;;;;25.02;8.65;;;;;;;3.79;100.00;100572.63;1703084;84;21008;-75
2022/11/14 01:10:30;;;;;;;32.38;7.85;;;;;;;3.80;100.00;100583.25;1701086;84;20972;-75
2022/11/14 01:13:17;;;;;;;27.90;8.68;;;;;;;3.78;100.00;100578.60;1703532;84;20959;-75
2022/11/14 01:16:09;;;;;;;18.15;7.83;;;;;;;3.76;100.00;100579.91;1695996;84;21358;-75
2022/11/14 01:18:56;;;;;;;15.80;7.45;;;;;;;3.75;100.00;100576.37;1664203;84;20952;-75
2022/11/14 01:21:46;;;;;;;21.75;7.95;;;;;;;3.75;100.00;100568.23;1696104;84;20892;-75
2022/11/14 01:24:34;;;;;;;25.45;8.05;;;;;;;3.79;100.00;100563.13;1702368;84;20975;-75
2022/11/14 01:27:28;;;;;;;21.00;7.92;;;;;;;3.79;100.00;100568.02;1704349;84;20971;-75
2022/11/14 01:30:19;;;;;;;23.67;7.07;;;;;;;3.79;100.00;100566.67;1697856;84;20940;-76
2022/11/14 01:33:10;;;;;;;34.65;6.47;;;;;;;3.78;100.00;100571.81;1706858;84;21266;-76
2022/11/14 01:35:58;;;;;;;20.37;6.10;;;;;;;3.75;100.00;100573.66;1671395;85;21003;-75
2022/11/14 01:38:44;;;;;;;18.27;6.42;;;;;;;3.73;100.00;100584.48;1681247;83;21582;-75
2022/11/14 01:41:34;;;;;;;18.75;6.75;;;;;;;3.69;100.00;100580.07;1702335;84;21415;-75
2022/11/14 01:44:54;;;;;;;13.30;6.53;;;;;;;3.69;100.00;100572.45;1734662;82;20927;-76
2022/11/14 01:47:44;;;;;;;20.32;7.75;;;;;;;3.75;100.00;100575.55;1583170;89;21576;-76
2022/11/14 01:50:38;;;;;;;21.52;8.00;;;;;;;3.76;100.00;100582.09;1621266;88;20923;-75
2022/11/14 01:53:29;;;;;;;17.70;5.80;;;;;;;3.75;100.00;100590.48;1642173;85;21120;-77
2022/11/14 01:56:23;;;;;;;13.62;5.35;;;;;;;3.66;100.00;100573.77;1706820;82;21004;-76
2022/11/14 01:59:19;;;;;;;10.53;4.97;;;;;;;3.66;100.00;100573.77;1734076;82;21526;-76
2022/11/14 02:02:16;;;;;;;20.37;5.47;;;;;;;3.67;100.00;100577.31;1702714;82;20995;-76
2022/11/14 02:05:12;;;;;;;22.17;5.05;;;;;;;3.65;100.00;100581.62;1668841;85;20908;-76
2022/11/14 02:07:58;;;;;;;21.62;5.20;;;;;;;3.61;100.00;100573.15;1639390;85;21493;-75
2022/11/14 02:10:45;;;;;;;28.75;5.83;;;;;;;3.61;100.00;100581.83;1661144;85;21016;-76
2022/11/14 02:13:34;;;;;;;18.15;5.53;;;;;;;3.61;100.00;100581.83;1660053;85;21578;-77
2022/11/14 02:16:23;;;;;;;38.13;6.37;;;;;;;3.61;100.00;100579.94;1664682;85;21459;-75
2022/11/14 02:19:08;;;;;;;25.68;6.60;;;;;;;3.64;100.00;100582.70;1699287;84;21038;-76
2022/11/14 02:21:54;;;;;;;15.60;5.17;;;;;;;3.63;100.00;100575.62;1736404;82;20908;-75
2022/11/14 02:24:40;;;;;;;20.85;6.12;;;;;;;3.64;100.00;100573.19;1706718;82;20956;-76
2022/11/14 02:27:34;;;;;;;30.77;5.95;;;;;;;3.68;100.00;100581.14;1737437;82;21008;-76
2022/11/14 02:30:26;;;;;;;34.88;6.60;;;;;;;3.72;100.00;100582.30;1734088;82;21259;-75
2022/11/14 02:33:16;;;;;;;16.70;6.40;;;;;;;3.72;100.00;100583.66;1733706;82;20888;-76
2022/11/14 02:36:07;;;;;;;19.77;5.33;;;;;;;3.72;100.00;100580.94;1736919;81;20971;-75
2022/11/14 02:39:00;;;;;;;49.73;7.08;;;;;;;3.74;100.00;100576.09;1708909;82;26513;-75
2022/11/14 02:41:47;;;;;;;54.08;7.25;;;;;;;3.74;100.00;100580.16;1734897;82;20971;-76
2022/11/14 02:44:34;;;;;;;19.05;5.30;;;;;;;3.72;100.00;100579.58;1684250;82;21327;-78
2022/11/14 02:47:24;;;;;;;29.37;6.58;;;;;;;3.70;100.00;100587.15;1733727;82;20963;-76
2022/11/14 02:50:12;;;;;;;16.82;4.83;;;;;;;3.71;100.00;100585.26;1733852;82;21533;-76
2022/11/14 02:53:00;;;;;;;17.20;5.72;;;;;;;3.70;100.00;100579.54;1734796;82;20968;-76
2022/11/14 02:55:49;;;;;;;30.32;7.17;;;;;;;3.70;100.00;100583.61;1735119;82;21110;-76
2022/11/14 02:58:36;;;;;;;30.35;6.42;;;;;;;3.68;100.00;100585.22;1733899;82;21265;-76
2022/11/14 03:01:29;;;;;;;17.82;5.10;;;;;;;3.69;100.00;100584.14;1681187;83;20899;-76
2022/11/14 03:04:20;;;;;;;19.82;6.70;;;;;;;3.73;100.00;100588.55;1679793;83;20955;-76
2022/11/14 03:07:10;;;;;;;18.60;6.25;;;;;;;3.75;100.00;100587.23;1641401;87;21038;-76
2022/11/14 03:10:01;;;;;;;12.60;4.97;;;;;;;3.78;100.00;100580.49;1662707;85;21016;-77
2022/11/14 03:12:54;;;;;;;28.12;6.87;;;;;;;3.82;100.00;100577.58;1639279;85;22176;-76
2022/11/14 03:15:41;;;;;;;41.08;7.78;;;;;;;3.81;100.00;100578.64;1687995;84;21001;-75
2022/11/14 03:18:32;;;;;;;71.47;6.53;;;;;;;3.81;100.00;100575.39;1702336;84;21481;-76
2022/11/14 03:21:23;;;;;;;26.37;5.90;;;;;;;3.79;100.00;100572.09;1676206;84;20906;-75
2022/11/14 03:24:16;;;;;;;23.80;5.78;;;;;;;3.73;100.00;100567.65;1697850;84;20937;-76
2022/11/14 03:27:03;;;;;;;51.00;6.83;;;;;;;3.71;100.00;100568.96;1699897;84;21271;-76
2022/11/14 03:29:51;;;;;;;25.30;4.97;;;;;;;3.69;100.00;100568.39;1670465;84;20902;-77
2022/11/14 03:32:41;;;;;;;19.92;5.58;;;;;;;3.67;100.00;100567.80;1706072;84;21079;-76
2022/11/14 03:35:25;;;;;;;21.23;6.20;;;;;;;3.67;100.00;100563.20;1672912;85;21036;-76
2022/11/14 03:38:15;;;;;;;15.83;4.55;;;;;;;3.67;100.00;100562.37;1707832;83;20877;-76
2022/11/14 03:41:06;;;;;;;24.15;5.28;;;;;;;3.64;100.00;100566.41;1706486;82;21565;-76
2022/11/14 03:43:56;;;;;;;49.27;5.70;;;;;;;3.61;100.00;100570.44;1685577;84;20909;-77
2022/11/14 03:46:44;;;;;;;18.82;5.62;;;;;;;3.59;100.00;100571.75;1671383;85;20946;-76
2022/11/14 03:49:30;;;;;;;31.05;4.72;;;;;;;3.55;100.00;100574.12;1675962;85;20932;-76
2022/11/14 03:52:15;;;;;;;24.63;5.62;;;;;;;3.55;100.00;100572.77;1646891;85;21044;-75
2022/11/14 03:55:00;;;;;;;34.65;6.25;;;;;;;3.56;100.00;100577.66;1668997;85;21814;-76
2022/11/14 03:57:48;;;;;;;18.12;6.03;;;;;;;3.56;100.00;100588.52;1641550;85;20949;-75
2022/11/14 04:00:40;;;;;;;23.40;5.08;;;;;;;3.53;100.00;100585.77;1641452;85;21034;-75
2022/11/14 04:03:26;;;;;;;39.80;5.42;;;;;;;3.51;100.00;100585.72;1669727;85;21025;-78
2022/11/14 04:06:21;;;;;;;14.10;4.03;;;;;;;3.49;100.00;100580.53;1644001;85;21442;-77
2022/11/14 04:09:10;;;;;;;;;;;;;;;3.46;100.00;100581.05;1680529;85;21266;-75
2022/11/14 04:11:55;;;;;;;19.17;5.42;;;;;;;3.44;100.00;100583.72;1680880;84;20137;-78
2022/11/14 04:14:45;;;;;;;29.82;5.87;;;;;;;3.44;100.00;100584.54;1638327;86;20921;-78
2022/11/14 04:17:35;;;;;;;29.82;5.15;;;;;;;3.44;100.00;100589.14;1676649;85;20853;-77
2022/11/14 04:20:28;;;;;;;10.45;4.47;;;;;;;3.39;100.00;100587.70;1654744;85;21082;-74
2022/11/14 04:23:18;;;;;;;16.23;5.58;;;;;;;3.31;100.00;100580.77;1647124;84;20942;-76
2022/11/14 04:26:10;;;;;;;25.15;5.75;;;;;;;3.29;100.00;100584.25;1701325;84;20980;-76
2022/11/14 04:29:01;;;;;;;20.55;6.35;;;;;;;3.33;100.00;100581.88;1701448;82;20945;-79
2022/11/14 04:31:52;;;;;;;17.90;6.45;;;;;;;3.34;100.00;100584.88;1664649;84;21001;-77
2022/11/14 04:34:43;;;;;;;17.95;6.92;;;;;;;3.30;100.00;100579.94;1665553;84;21017;-77
2022/11/14 04:37:37;;;;;;;42.78;7.62;;;;;;;3.30;100.00;100582.66;1672671;84;20977;-76
2022/11/14 04:40:23;;;;;;;35.55;6.58;;;;;;;3.30;100.00;100588.08;1701745;84;20881;-77
2022/11/14 04:43:11;;;;;;;26.77;6.58;;;;;;;3.21;100.00;100588.17;1665578;84;21499;-78
2022/11/14 04:45:59;;;;;;;21.60;6.60;;;;;;;3.17;100.00;100595.16;1684226;84;20973;-77
2022/11/14 04:48:49;;;;;;;21.45;7.60;;;;;;;3.17;100.00;100597.86;1692564;82;21026;-75
2022/11/14 04:51:39;;;;;;;27.37;7.08;;;;;;;3.19;100.00;100593.02;1692803;83;21722;-78
2022/11/14 04:54:28;;;;;;;31.97;7.08;;;;;;;3.22;100.00;100592.54;1688938;84;20920;-77
2022/11/14 04:57:24;;;;;;;34.15;7.80;;;;;;;3.18;100.00;100590.02;1705634;84;20945;-76
2022/11/14 05:00:14;;;;;;;28.02;5.65;;;;;;;3.07;100.00;100598.19;1667228;84;20945;-77
2022/11/14 05:03:02;;;;;;;21.82;4.95;;;;;;;3.03;100.00;100599.20;1664617;84;21477;-80
2022/11/14 05:05:52;;;;;;;24.72;5.75;;;;;;;3.04;100.00;100599.50;1672561;84;20969;-81
2022/11/14 05:08:37;;;;;;;21.97;5.28;;;;;;;3.01;100.00;100610.00;1699614;83;20980;-78
2022/11/14 05:11:22;;;;;;;18.20;6.28;;;;;;;2.95;100.00;100609.08;1698599;84;20897;-76
2022/11/14 05:14:08;;;;;;;15.13;5.33;;;;;;;2.88;100.00;100611.95;1706337;82;20993;-75
2022/11/14 05:16:53;;;;;;;14.10;6.22;;;;;;;2.86;100.00;100610.54;1686877;84;20902;-75
2022/11/14 05:19:40;;;;;;;14.43;5.42;;;;;;;2.86;100.00;100613.25;1674448;85;21801;-75
2022/11/14 05:22:25;;;;;;;14.40;4.70;;;;;;;2.87;100.00;100614.91;1669562;86;21008;-75
2022/11/14 05:25:10;;;;;;;13.48;5.33;;;;;;;2.81;100.00;100625.34;1675249;84;20925;-79
2022/11/14 05:27:56;;;;;;;29.82;4.47;;;;;;;2.71;100.00;100624.59;1682071;82;21024;-75
2022/11/14 05:30:41;;;;;;;13.22;4.35;;;;;;;2.69;100.00;100625.89;1704857;84;21079;-74
2022/11/14 05:33:27;;;;;;;15.93;4.10;;;;;;;2.64;100.00;100619.30;1679871;85;21532;-75
2022/11/14 05:36:15;;;;;;;13.72;4.35;;;;;;;2.65;100.00;100632.32;1679810;85;20953;-75
2022/11/14 05:39:00;;;;;;;11.30;4.53;;;;;;;2.68;100.00;100632.38;1671516;85;21018;-75
2022/11/14 05:41:46;;;;;;;21.30;4.60;;;;;;;2.68;100.00;100638.62;1673618;85;21004;-75
2022/11/14 05:44:33;;;;;;;19.50;4.30;;;;;;;2.65;100.00;100639.92;1648809;86;20914;-75
2022/11/14 05:47:17;;;;;;;7.00;3.92;;;;;;;2.67;100.00;100643.75;1697011;84;21269;-76
2022/11/14 05:50:03;;;;;;;20.65;4.58;;;;;;;2.63;100.00;100642.58;1697271;82;20892;-75
2022/11/14 05:52:48;;;;;;;23.65;4.15;;;;;;;2.52;100.00;100642.05;1692614;84;21044;-75
2022/11/14 05:55:33;;;;;;;18.77;4.55;;;;;;;2.47;100.00;100644.11;1736222;82;20957;-75
2022/11/14 05:58:18;;;;;;;23.80;4.67;;;;;;;2.49;100.00;100650.13;1735545;82;20979;-76
2022/11/14 06:01:14;;;;;;;13.78;4.47;;;;;;;2.58;100.00;100643.28;1733837;82;21257;-75
2022/11/14 06:04:00;;;;;;;24.27;5.20;;;;;;;2.65;100.00;100641.28;1729450;82;21098;-77
2022/11/14 06:06:45;;;;;;;27.22;6.50;;;;;;;2.74;100.00;100649.05;1731711;82;20896;-80
2022/11/14 06:09:30;;;;;;;31.60;5.80;;;;;;;2.73;100.00;100648.76;1727087;82;21011;-75
2022/11/14 06:12:16;;;;;;;31.62;6.83;;;;;;;2.64;100.00;100646.41;1734559;82;20983;-75
2022/11/14 06:15:03;;;;;;;21.30;5.92;;;;;;;2.68;100.00;100650.00;1725157;82;21651;-75
2022/11/14 06:17:54;;;;;;;32.05;5.97;;;;;;;2.71;100.00;100642.75;1651810;84;21009;-83
2022/11/14 06:20:40;;;;;;;76.45;6.85;;;;;;;2.65;100.00;100649.41;1702886;83;20908;-77
2022/11/14 06:23:25;;;;;;;29.45;5.80;;;;;;;2.60;100.00;100644.41;1705323;84;21050;-74
2022/11/14 06:26:31;;;;;;;21.48;5.33;;;;;;;2.51;100.00;100648.00;1705664;84;21058;-83
2022/11/14 06:29:16;;;;;;;43.23;6.20;;;;;;;2.49;100.00;100652.83;1670084;84;21744;-87
2022/11/14 06:32:01;;;;;;;26.05;5.42;;;;;;;2.58;100.00;100654.13;1735163;82;20965;-85
2022/11/14 06:34:47;;;;;;;28.85;6.62;;;;;;;2.60;100.00;100653.89;1693760;82;20980;-81
2022/11/14 06:37:37;;;;;;;13.70;6.17;;;;;;;2.57;100.00;100666.03;1696862;82;20916;-77
2022/11/14 06:40:22;;;;;;;22.15;6.70;;;;;;;2.54;100.00;100662.44;1696911;82;21575;-74
2022/11/14 06:43:07;;;;;;;34.08;8.55;;;;;;;2.64;100.00;100668.09;1723979;82;21299;-74
2022/11/14 06:45:54;;;;;;;18.12;6.33;;;;;;;2.76;100.00;100666.73;1729115;81;20948;-75
2022/11/14 06:48:39;;;;;;;11.57;5.60;;;;;;;2.84;100.00;100667.73;1731421;81;20995;-75
2022/11/14 06:51:24;;;;;;;32.15;8.10;;;;;;;2.91;100.00;100662.15;1708564;82;20954;-74
2022/11/14 06:54:11;;;;;;;19.07;6.75;;;;;;;3.01;100.00;100664.26;1667623;85;21002;-74
2022/11/14 06:56:56;;;;;;;20.00;5.83;;;;;;;3.04;100.00;100662.42;1704129;82;21711;-78
2022/11/14 06:59:41;;;;;;;17.32;6.42;;;;;;;3.01;100.00;100666.44;1688585;82;21447;-76
2022/11/14 07:02:26;;;;;;;19.98;5.70;;;;;;;3.06;100.00;100667.91;1684425;82;20953;-74
2022/11/14 07:05:11;;;;;;;25.97;5.22;;;;;;;3.13;100.00;100667.78;1684687;82;20965;-74
2022/11/14 07:07:57;;;;;;;23.07;5.72;;;;;;;3.18;100.00;100671.95;1669341;84;21591;-75
2022/11/14 07:10:42;;;;;;;32.83;5.75;;;;;;;3.18;100.00;100663.81;1652484;85;21613;-74
2022/11/14 07:13:27;;;;;;;16.15;7.53;;;;;;;3.23;100.00;100659.31;1680146;82;20985;-73
2022/11/14 07:16:13;;;;;;;14.95;5.70;;;;;;;3.24;100.00;100666.39;1699968;82;21002;-79
2022/11/14 07:18:59;;;;;;;23.55;7.75;;;;;;;3.28;100.00;100662.66;1733219;82;20935;-79
2022/11/14 07:21:45;;;;;;;13.58;6.45;;;;;;;3.29;100.00;100669.74;1661603;85;21480;-75
2022/11/14 07:24:30;;;;;;;21.80;5.80;;;;;;;3.27;100.00;100667.27;1705399;82;21176;-74
2022/11/14 07:27:20;;;;;;;18.05;5.12;;;;;;;3.26;100.00;100669.69;1698662;82;21052;-74
2022/11/14 07:30:06;;;;;;;17.15;6.12;;;;;;;3.26;100.00;100660.72;1654733;84;20929;-83
2022/11/14 07:32:56;;;;;;;17.92;5.92;;;;;;;3.43;100.00;100673.00;1694058;84;21004;-75
2022/11/14 07:35:42;;;;;;;24.05;6.75;;;;;;;3.43;100.00;100673.00;1703696;83;21421;-78
2022/11/14 07:38:27;;;;;;;18.65;6.75;;;;;;;3.46;100.00;100669.81;1680163;84;21775;-77
2022/11/14 07:41:15;;;;;;;20.72;7.62;;;;;;;3.53;100.00;100671.29;1678339;85;20981;-73
2022/11/14 07:44:00;;;;;;;19.87;7.45;;;;;;;3.64;100.00;100669.06;1672382;84;21515;-76
2022/11/14 07:46:45;;;;;;;14.75;8.05;;;;;;;3.70;100.00;100671.34;1645909;86;21063;-75
2022/11/14 07:49:30;;;;;;;22.80;8.78;;;;;;;3.73;100.00;100664.59;1675334;82;20931;-76
2022/11/14 07:52:18;;;;;;;15.95;7.78;;;;;;;3.78;100.00;100661.44;1706442;82;21278;-76
2022/11/14 07:55:06;;;;;;;20.62;9.40;;;;;;;3.80;100.00;100667.98;1694398;82;20932;-73
2022/11/14 07:57:54;;;;;;;11.60;6.80;;;;;;;3.88;100.00;100669.77;1684825;82;21482;-73
2022/11/14 08:00:41;;;;;;;12.80;7.15;;;;;;;3.97;100.00;100669.67;1695795;83;20908;-77
2022/11/14 08:03:26;;;;;;;19.25;7.53;;;;;;;4.03;100.00;100662.97;1736408;81;20943;-81
2022/11/14 08:06:15;;;;;;;11.78;7.30;;;;;;;4.04;100.00;100665.44;1670975;85;21218;-80
2022/11/14 08:09:00;;;;;;;19.87;9.55;;;;;;;4.10;100.00;100664.42;1702637;82;20928;-74
2022/11/14 08:11:50;;;;;;;18.87;8.70;;;;;;;4.11;100.00;100663.89;1704793;84;21024;-78
2022/11/14 08:14:40;;;;;;;27.62;9.40;;;;;;;4.12;100.00;100660.92;1703196;84;21483;-78
2022/11/14 08:17:31;;;;;;;15.70;8.68;;;;;;;4.10;100.00;100658.99;1640992;85;21494;-76
2022/11/14 08:20:18;;;;;;;15.15;9.05;;;;;;;4.12;100.00;100661.46;1679119;84;21473;-75
2022/11/14 08:23:07;;;;;;;17.32;8.88;;;;;;;4.13;100.00;100661.22;1667829;85;21098;-75
2022/11/14 08:26:01;;;;;;;15.68;9.65;;;;;;;4.09;100.00;100656.52;1704708;84;20951;-76
2022/11/14 08:28:47;;;;;;;21.57;10.63;;;;;;;4.08;100.00;100665.73;1670057;85;20954;-78
2022/11/14 08:31:35;;;;;;;12.88;7.95;;;;;;;4.11;100.00;100669.33;1698038;82;20929;-74
2022/11/14 08:34:22;;;;;;;17.20;9.15;;;;;;;4.09;100.00;100664.14;1717010;80;20904;-77
2022/11/14 08:37:10;;;;;;;15.43;8.10;;;;;;;4.06;100.00;100667.87;1682206;82;21028;-74
2022/11/14 08:39:59;;;;;;;20.57;8.25;;;;;;;4.25;100.00;100665.22;1727380;81;21049;-77
2022/11/14 08:42:47;;;;;;;18.02;9.10;;;;;;;4.25;100.00;100665.22;1733142;82;21135;-77
2022/11/14 08:45:34;;;;;;;15.48;9.53;;;;;;;4.31;100.00;100660.16;1737168;82;21003;-79
2022/11/14 08:48:22;;;;;;;15.68;9.45;;;;;;;4.34;100.00;100654.76;1730606;81;21559;-83
2022/11/14 08:51:09;;;;;;;13.60;7.80;;;;;;;4.40;100.00;100661.39;1702682;82;21582;-77
2022/11/14 08:54:00;;;;;;;13.38;8.78;;;;;;;4.40;100.00;100661.39;1661940;85;20912;-85
2022/11/14 08:56:49;;;;;;;19.77;10.25;;;;;;;4.40;100.00;100660.56;1700304;84;21043;-80
2022/11/14 08:59:38;;;;;;;15.30;8.83;;;;;;;4.42;100.00;100666.05;1709241;82;20903;-73
2022/11/14 09:02:25;;;;;;;23.32;9.28;;;;;;;4.53;100.00;100663.77;1735098;82;21937;-79
2022/11/14 09:05:15;;;;;;;14.83;8.88;;;;;;;4.55;100.00;100656.19;1732122;81;21036;-79
2022/11/14 09:08:11;;;;;;;17.05;8.63;;;;;;;4.55;100.00;100656.19;1730432;82;21063;-79
2022/11/14 09:11:02;;;;;;;19.25;8.38;;;;;;;4.50;100.00;100646.59;1732892;82;21075;-76
2022/11/14 09:13:52;;;;;;;16.37;8.03;;;;;;;4.46;100.00;100650.88;1666675;84;21000;-76
2022/11/14 09:16:38;;;;;;;19.73;10.45;;;;;;;4.52;100.00;100650.42;1661418;85;21166;-80
2022/11/14 09:19:25;;;;;;;16.77;8.68;;;;;;;4.53;100.00;100651.53;1707014;82;20903;-86
2022/11/14 09:22:10;;;;;;;13.45;8.78;;;;;;;4.62;100.00;100644.57;1701247;84;21437;-84
2022/11/14 09:24:55;;;;;;;11.45;7.10;;;;;;;4.62;100.00;100644.57;1669323;85;21034;-81
2022/11/14 09:27:41;;;;;;;18.07;9.83;;;;;;;4.66;100.00;100639.45;1703037;82;20904;-76
2022/11/14 09:30:28;;;;;;;14.75;9.35;;;;;;;4.70;100.00;100630.26;1696816;82;21275;-75
2022/11/14 09:33:16;;;;;;;16.07;9.45;;;;;;;4.70;100.00;100630.26;1704383;82;20904;-76
2022/11/14 09:36:08;;;;;;;15.75;8.00;;;;;;;4.64;100.00;100632.08;1678571;84;21071;-78
2022/11/14 09:38:53;;;;;;;13.22;7.45;;;;;;;4.68;100.00;100631.05;1698686;84;20940;-80
2022/11/14 09:42:03;;;;;;;12.47;7.78;;;;;;;4.86;100.00;100636.20;1692871;83;20897;-79
2022/11/14 09:44:55;;;;;;;12.55;7.80;;;;;;;4.93;100.00;100630.03;1699169;84;21174;-81
2022/11/14 09:47:45;;;;;;;13.00;7.50;;;;;;;5.01;100.00;100628.24;1705545;83;20884;-79
2022/11/14 09:50:36;;;;;;;18.17;6.33;;;;;;;5.01;100.00;100628.24;1673887;83;20937;-83
2022/11/14 09:53:33;;;;;;;11.38;6.53;;;;;;;5.10;100.00;100634.06;1669570;86;21488;-77
2022/11/14 09:56:24;;;;;;;7.12;5.17;;;;;;;5.15;100.00;100618.62;1678168;85;21515;-80
2022/11/14 09:59:14;;;;;;;9.55;6.45;;;;;;;5.22;100.00;100624.67;1682185;84;21837;-77
2022/11/14 10:02:20;;;;;;;13.05;7.28;;;;;;;5.14;100.00;100616.98;1701491;82;21012;-78
2022/11/14 10:05:29;;;;;;;18.05;9.00;;;;;;;5.15;100.00;100615.91;1697608;84;20974;-77
2022/11/14 10:08:32;;;;;;;11.78;7.10;;;;;;;5.14;100.00;100616.98;1702508;84;21027;-77
2022/11/14 10:11:35;;;;;;;10.13;6.58;;;;;;;5.00;100.00;100610.27;1673099;84;21516;-82
2022/11/14 10:14:52;;;;;;;11.68;7.05;;;;;;;4.98;100.00;100615.96;1655786;82;21409;-78
2022/11/14 10:18:12;;;;;;;13.35;8.00;;;;;;;4.98;100.00;100615.96;1700884;82;20991;-77
2022/11/14 10:21:09;;;;;;;14.65;7.50;;;;;;;5.08;100.00;100612.55;1697750;82;21504;-80
2022/11/14 10:24:27;;;;;;;14.28;7.37;;;;;;;5.22;100.00;100608.33;1696031;82;20958;-78
2022/11/14 10:27:31;;;;;;;17.92;8.45;;;;;;;5.22;100.00;100608.33;1694008;82;21533;-82
2022/11/14 10:30:17;;;;;;;15.43;8.13;;;;;;;5.24;100.00;100609.44;1695989;84;21333;-84
2022/11/14 10:33:35;;;;;;;13.90;8.83;;;;;;;5.15;100.00;100598.20;1688749;84;21596;-79
2022/11/14 10:36:51;;;;;;;16.62;9.08;;;;;;;5.15;100.00;100598.20;1698682;84;20958;-74
2022/11/14 10:39:52;;;;;;;10.70;7.17;;;;;;;5.18;100.00;100595.52;1697287;82;21542;-76
2022/11/14 10:42:40;;;;;;;12.68;7.22;;;;;;;5.28;100.00;100599.15;1699578;82;20959;-76
2022/11/14 10:45:44;;;;;;;19.17;7.42;;;;;;;5.26;100.00;100591.77;1668799;84;21074;-77
2022/11/14 10:48:40;;;;;;;16.80;7.47;;;;;;;5.26;100.00;100591.77;1703488;84;21027;-74
2022/11/14 10:51:37;;;;;;;17.12;7.08;;;;;;;5.36;100.00;100586.16;1732240;81;21135;-78
2022/11/14 10:54:45;;;;;;;14.10;7.37;;;;;;;5.46;100.00;100584.91;1660492;84;20929;-75
2022/11/14 10:57:30;;;;;;;9.45;6.72;;;;;;;5.47;100.00;100581.92;1654991;85;21139;-76
2022/11/14 11:00:21;;;;;;;12.68;8.00;;;;;;;5.47;100.00;100581.92;1675285;84;21408;-75
2022/11/14 11:03:12;;;;;;;15.58;9.03;;;;;;;5.43;100.00;100583.52;1679007;84;21519;-83
2022/11/14 11:05:58;;;;;;;12.63;7.20;;;;;;;5.41;100.00;100587.58;1677405;84;20999;-79
2022/11/14 11:11:58;;;;;;;12.93;5.22;;;;;;;5.41;100.00;100593.02;1723207;81;21021;-81
2022/11/14 11:14:46;;;;;;;13.78;5.90;;;;;;;5.51;100.00;100591.23;1641423;84;21886;-80
2022/11/14 11:17:31;;;;;;;15.28;7.65;;;;;;;5.51;100.00;100591.23;1715321;81;20943;-79
2022/11/14 11:20:34;;;;;;;15.83;8.50;;;;;;;5.59;100.00;100588.58;1705608;84;20998;-77
2022/11/14 11:23:24;;;;;;;19.07;8.95;;;;;;;5.78;100.00;100583.02;1710131;81;20958;-83
2022/11/14 11:26:27;;;;;;;12.73;6.83;;;;;;;5.78;100.00;100583.02;1725123;81;20990;-83
2022/11/14 11:29:15;;;;;;;12.47;6.60;;;;;;;5.85;100.00;100588.25;1660107;84;21288;-78
2022/11/14 11:32:02;;;;;;;11.18;5.17;;;;;;;5.84;100.00;100582.52;1695496;82;21092;-79
2022/11/14 11:34:48;;;;;;;8.68;4.97;;;;;;;5.87;100.00;100579.28;1683248;82;21004;-78
2022/11/14 11:37:58;;;;;;;11.33;5.80;;;;;;;5.83;100.00;100575.42;1650347;82;20916;-81
2022/11/14 11:40:44;;;;;;;13.30;6.08;;;;;;;5.73;100.00;100572.10;1701019;84;20995;-85
2022/11/14 11:43:46;;;;;;;9.58;5.58;;;;;;;5.67;100.00;100574.50;1721421;82;21287;-78
2022/11/14 11:46:47;;;;;;;14.58;8.33;;;;;;;5.64;100.00;100573.11;1727989;81;20987;-78
2022/11/14 11:49:49;;;;;;;20.02;9.83;;;;;;;5.67;100.00;100570.41;1684685;82;21514;-83
2022/11/14 11:52:44;;;;;;;12.82;7.12;;;;;;;5.69;100.00;100565.52;1699704;84;20888;-79
2022/11/14 11:55:32;;;;;;;18.45;7.60;;;;;;;5.74;100.00;100564.21;1694555;83;20908;-82
2022/11/14 11:58:37;;;;;;;14.28;6.15;;;;;;;5.76;100.00;100561.23;1690086;82;21226;-81
2022/11/14 12:01:22;;;;;;;10.05;6.65;;;;;;;5.76;100.00;100551.15;1699940;84;20967;-78
2022/11/14 12:04:08;;;;;;;12.55;6.70;;;;;;;5.79;100.00;100556.05;1656919;84;21482;-80
2022/11/14 12:07:02;;;;;;;15.65;6.15;;;;;;;5.79;100.00;100556.05;1696729;82;21146;-76
2022/11/14 12:09:48;;;;;;;10.18;5.97;;;;;;;5.70;100.00;100559.53;1720956;82;21184;-77
2022/11/14 12:12:53;;;;;;;14.20;6.53;;;;;;;5.69;100.00;100557.35;1678164;84;21073;-77
2022/11/14 12:16:02;;;;;;;8.10;5.12;;;;;;;5.68;100.00;100559.80;1702833;82;21057;-77
2022/11/14 12:19:17;;;;;;;11.48;6.08;;;;;;;5.67;100.00;100558.69;1682899;84;20983;-77
2022/11/14 12:22:49;;;;;;;15.28;6.55;;;;;;;5.63;100.00;100554.30;1665796;84;20964;-74
2022/11/14 12:26:13;;;;;;;10.30;6.50;;;;;;;5.66;100.00;100549.70;1697990;82;21006;-78
2022/11/14 12:29:37;;;;;;;12.73;7.45;;;;;;;5.70;100.00;100556.27;1687172;84;21383;-77
2022/11/14 12:32:33;;;;;;;15.45;6.97;;;;;;;5.72;100.00;100555.47;1706874;82;20963;-78
2022/11/14 12:35:34;;;;;;;12.55;7.37;;;;;;;5.66;100.00;100551.06;1688430;83;21589;-78
2022/11/14 12:38:21;;;;;;;15.08;7.37;;;;;;;5.66;100.00;100551.06;1706445;82;21074;-78
2022/11/14 12:41:07;;;;;;;10.65;6.85;;;;;;;5.65;100.00;100543.97;1705105;82;20999;-78
2022/11/14 12:43:52;;;;;;;13.32;6.83;;;;;;;5.64;100.00;100538.23;1705824;82;22191;-79
2022/11/14 12:47:06;;;;;;;11.12;6.25;;;;;;;5.64;100.00;100540.42;1680299;82;20951;-76
2022/11/14 12:49:56;;;;;;;9.63;5.75;;;;;;;5.61;100.00;100541.48;1706070;82;21577;-76
2022/11/14 12:52:47;;;;;;;9.98;5.90;;;;;;;5.54;100.00;100538.14;1705203;82;20955;-76
2022/11/14 12:55:43;;;;;;;11.70;6.60;;;;;;;5.49;100.00;100543.54;1645368;86;21234;-78
2022/11/14 12:58:53;;;;;;;16.25;6.78;;;;;;;5.50;100.00;100538.37;1678249;85;21277;-77
2022/11/14 13:02:17;;;;;;;13.78;6.87;;;;;;;5.47;100.00;100541.61;1705533;82;20974;-78
2022/11/14 13:05:41;;;;;;;11.43;6.35;;;;;;;5.43;100.00;100538.58;1705235;82;21049;-78
2022/11/14 13:08:59;;;;;;;12.23;6.47;;;;;;;5.37;100.00;100534.17;1707200;82;21077;-77
2022/11/14 13:21:48;;;;;;;15.15;7.80;;;;;;;5.44;100.00;100536.69;1710449;82;20967;-79